sensor_id;sensor_type;location;lat;lon;timestamp;temperature;humidity
44775;DHT22;31340;51.402;0.016;2024-02-21T00:01:15;11.50;99.90
44775;DHT22;31340;51.402;0.016;2024-02-21T00:03:44;11.50;99.90
44775;DHT22;31340;51.402;0.016;2024-02-21T00:06:11;11.50;99.90
44775;DHT22;31340;51.402;0.016;2024-02-21T00:08:39;11.50;99.90
44775;DHT22;31340;51.402;0.016;2024-02-21T00:11:07;11.50;99.90
44775;DHT22;31340;51.402;0.016;2024-02-21T00:13:35;11.50;99.90
44775;DHT22;31340;51.402;0.016;2024-02-21T00:16:02;11.50;99.90
44775;DHT22;31340;51.402;0.016;2024-02-21T00:18:30;11.50;99.90
44775;DHT22;31340;51.402;0.016;2024-02-21T00:20:58;11.60;99.90
44775;DHT22;31340;51.402;0.016;2024-02-21T00:23:26;11.60;99.90
44775;DHT22;31340;51.402;0.016;2024-02-21T00:25:53;11.60;99.90
44775;DHT22;31340;51.402;0.016;2024-02-21T00:28:21;11.60;99.90
44775;DHT22;31340;51.402;0.016;2024-02-21T00:30:49;11.60;99.90
44775;DHT22;31340;51.402;0.016;2024-02-21T00:33:17;11.60;99.90
44775;DHT22;31340;51.402;0.016;2024-02-21T00:35:45;11.60;99.90
44775;DHT22;31340;51.402;0.016;2024-02-21T00:38:13;11.60;99.90
44775;DHT22;31340;51.402;0.016;2024-02-21T00:40:41;11.60;99.90
44775;DHT22;31340;51.402;0.016;2024-02-21T00:43:10;11.50;99.90
44775;DHT22;31340;51.402;0.016;2024-02-21T00:45:37;11.60;99.90
44775;DHT22;31340;51.402;0.016;2024-02-21T00:48:05;11.60;99.90
44775;DHT22;31340;51.402;0.016;2024-02-21T00:50:33;11.60;99.90
44775;DHT22;31340;51.402;0.016;2024-02-21T00:53:00;11.60;99.90
44775;DHT22;31340;51.402;0.016;2024-02-21T00:55:28;11.60;99.90
44775;DHT22;31340;51.402;0.016;2024-02-21T00:57:56;11.60;99.90
44775;DHT22;31340;51.402;0.016;2024-02-21T01:00:24;11.60;99.90
44775;DHT22;31340;51.402;0.016;2024-02-21T01:02:51;11.60;99.90
44775;DHT22;31340;51.402;0.016;2024-02-21T01:05:20;11.60;99.90
44775;DHT22;31340;51.402;0.016;2024-02-21T01:07:48;11.60;99.90
44775;DHT22;31340;51.402;0.016;2024-02-21T01:10:16;11.60;99.90
44775;DHT22;31340;51.402;0.016;2024-02-21T01:12:44;11.50;99.90
44775;DHT22;31340;51.402;0.016;2024-02-21T01:15:12;11.60;99.90
44775;DHT22;31340;51.402;0.016;2024-02-21T01:17:39;11.60;99.90
44775;DHT22;31340;51.402;0.016;2024-02-21T01:20:08;11.50;99.90
44775;DHT22;31340;51.402;0.016;2024-02-21T01:22:36;11.50;99.90
44775;DHT22;31340;51.402;0.016;2024-02-21T01:25:04;11.50;99.90
44775;DHT22;31340;51.402;0.016;2024-02-21T01:27:31;11.50;99.90
44775;DHT22;31340;51.402;0.016;2024-02-21T01:29:59;11.50;99.90
44775;DHT22;31340;51.402;0.016;2024-02-21T01:32:26;11.50;99.90
44775;DHT22;31340;51.402;0.016;2024-02-21T01:34:54;11.50;99.90
44775;DHT22;31340;51.402;0.016;2024-02-21T01:37:22;11.50;99.90
44775;DHT22;31340;51.402;0.016;2024-02-21T01:39:49;11.50;99.90
44775;DHT22;31340;51.402;0.016;2024-02-21T01:42:17;11.50;99.90
44775;DHT22;31340;51.402;0.016;2024-02-21T01:44:45;11.50;99.90
44775;DHT22;31340;51.402;0.016;2024-02-21T01:47:13;11.50;99.90
44775;DHT22;31340;51.402;0.016;2024-02-21T01:49:41;11.50;99.90
44775;DHT22;31340;51.402;0.016;2024-02-21T01:52:11;11.50;99.90
44775;DHT22;31340;51.402;0.016;2024-02-21T01:54:40;11.50;99.90
44775;DHT22;31340;51.402;0.016;2024-02-21T01:57:08;11.50;99.90
44775;DHT22;31340;51.402;0.016;2024-02-21T01:59:36;11.50;99.90
44775;DHT22;31340;51.402;0.016;2024-02-21T02:02:03;11.50;99.90
44775;DHT22;31340;51.402;0.016;2024-02-21T02:04:31;11.40;99.90
44775;DHT22;31340;51.402;0.016;2024-02-21T02:07:02;11.40;99.90
44775;DHT22;31340;51.402;0.016;2024-02-21T02:09:31;11.40;99.90
44775;DHT22;31340;51.402;0.016;2024-02-21T02:11:59;11.40;99.90
44775;DHT22;31340;51.402;0.016;2024-02-21T02:14:27;11.50;99.90
44775;DHT22;31340;51.402;0.016;2024-02-21T02:16:55;11.40;99.90
44775;DHT22;31340;51.402;0.016;2024-02-21T02:19:23;11.40;99.90
44775;DHT22;31340;51.402;0.016;2024-02-21T02:21:59;11.50;99.90
44775;DHT22;31340;51.402;0.016;2024-02-21T02:24:27;11.40;99.90
44775;DHT22;31340;51.402;0.016;2024-02-21T02:26:54;11.40;99.90
44775;DHT22;31340;51.402;0.016;2024-02-21T02:29:22;11.50;99.90
44775;DHT22;31340;51.402;0.016;2024-02-21T02:31:50;11.50;99.90
44775;DHT22;31340;51.402;0.016;2024-02-21T02:34:18;11.50;99.90
44775;DHT22;31340;51.402;0.016;2024-02-21T02:36:46;11.50;99.90
44775;DHT22;31340;51.402;0.016;2024-02-21T02:39:16;11.50;99.90
44775;DHT22;31340;51.402;0.016;2024-02-21T02:41:44;11.50;99.90
44775;DHT22;31340;51.402;0.016;2024-02-21T02:44:11;11.50;99.90
44775;DHT22;31340;51.402;0.016;2024-02-21T02:46:42;11.50;99.90
44775;DHT22;31340;51.402;0.016;2024-02-21T02:49:10;11.50;99.90
44775;DHT22;31340;51.402;0.016;2024-02-21T02:51:42;11.50;99.90
44775;DHT22;31340;51.402;0.016;2024-02-21T02:54:11;11.50;99.90
44775;DHT22;31340;51.402;0.016;2024-02-21T02:56:39;11.50;99.90
44775;DHT22;31340;51.402;0.016;2024-02-21T02:59:07;11.50;99.90
44775;DHT22;31340;51.402;0.016;2024-02-21T03:01:34;11.50;99.90
44775;DHT22;31340;51.402;0.016;2024-02-21T03:04:02;11.50;99.90
44775;DHT22;31340;51.402;0.016;2024-02-21T03:06:30;11.50;99.90
44775;DHT22;31340;51.402;0.016;2024-02-21T03:08:58;11.50;99.90
44775;DHT22;31340;51.402;0.016;2024-02-21T03:11:27;11.50;99.90
44775;DHT22;31340;51.402;0.016;2024-02-21T03:13:57;11.50;99.90
44775;DHT22;31340;51.402;0.016;2024-02-21T03:16:25;11.50;99.90
44775;DHT22;31340;51.402;0.016;2024-02-21T03:18:53;11.50;99.90
44775;DHT22;31340;51.402;0.016;2024-02-21T03:21:20;11.50;99.90
44775;DHT22;31340;51.402;0.016;2024-02-21T03:23:48;11.50;99.90
44775;DHT22;31340;51.402;0.016;2024-02-21T03:26:15;11.50;99.90
44775;DHT22;31340;51.402;0.016;2024-02-21T03:28:44;11.50;99.90
44775;DHT22;31340;51.402;0.016;2024-02-21T03:31:13;11.50;99.90
44775;DHT22;31340;51.402;0.016;2024-02-21T03:33:42;11.50;99.90
44775;DHT22;31340;51.402;0.016;2024-02-21T03:36:15;11.50;99.90
44775;DHT22;31340;51.402;0.016;2024-02-21T03:38:43;11.50;99.90
44775;DHT22;31340;51.402;0.016;2024-02-21T03:41:11;11.40;99.90
44775;DHT22;31340;51.402;0.016;2024-02-21T03:43:39;11.40;99.90
44775;DHT22;31340;51.402;0.016;2024-02-21T03:46:07;11.40;99.90
44775;DHT22;31340;51.402;0.016;2024-02-21T03:48:36;11.40;99.90
44775;DHT22;31340;51.402;0.016;2024-02-21T03:51:04;11.40;99.90
44775;DHT22;31340;51.402;0.016;2024-02-21T03:53:32;11.40;99.90
44775;DHT22;31340;51.402;0.016;2024-02-21T03:56:03;11.40;99.90
44775;DHT22;31340;51.402;0.016;2024-02-21T03:58:31;11.40;99.90
44775;DHT22;31340;51.402;0.016;2024-02-21T04:01:02;11.40;99.90
44775;DHT22;31340;51.402;0.016;2024-02-21T04:03:31;11.40;99.90
44775;DHT22;31340;51.402;0.016;2024-02-21T04:05:58;11.40;99.90
44775;DHT22;31340;51.402;0.016;2024-02-21T04:08:26;11.40;99.90
44775;DHT22;31340;51.402;0.016;2024-02-21T04:10:53;11.40;99.90
44775;DHT22;31340;51.402;0.016;2024-02-21T04:13:21;11.40;99.90
44775;DHT22;31340;51.402;0.016;2024-02-21T04:15:50;11.40;99.90
44775;DHT22;31340;51.402;0.016;2024-02-21T04:18:18;11.30;99.90
44775;DHT22;31340;51.402;0.016;2024-02-21T04:20:45;11.30;99.90
44775;DHT22;31340;51.402;0.016;2024-02-21T04:23:14;11.30;99.90
44775;DHT22;31340;51.402;0.016;2024-02-21T04:25:42;11.30;99.90
44775;DHT22;31340;51.402;0.016;2024-02-21T04:28:09;11.30;99.90
44775;DHT22;31340;51.402;0.016;2024-02-21T04:30:37;11.40;99.90
44775;DHT22;31340;51.402;0.016;2024-02-21T04:33:04;11.30;99.90
44775;DHT22;31340;51.402;0.016;2024-02-21T04:35:32;11.30;99.90
44775;DHT22;31340;51.402;0.016;2024-02-21T04:37:59;11.30;99.90
44775;DHT22;31340;51.402;0.016;2024-02-21T04:40:28;11.30;99.90
44775;DHT22;31340;51.402;0.016;2024-02-21T04:42:56;11.20;99.90
44775;DHT22;31340;51.402;0.016;2024-02-21T04:45:24;11.20;99.90
44775;DHT22;31340;51.402;0.016;2024-02-21T04:47:51;11.20;99.90
44775;DHT22;31340;51.402;0.016;2024-02-21T04:50:19;11.20;99.90
44775;DHT22;31340;51.402;0.016;2024-02-21T04:52:47;11.20;99.90
44775;DHT22;31340;51.402;0.016;2024-02-21T04:55:15;11.20;99.90
44775;DHT22;31340;51.402;0.016;2024-02-21T04:57:42;11.20;99.90
44775;DHT22;31340;51.402;0.016;2024-02-21T05:00:10;11.20;99.90
44775;DHT22;31340;51.402;0.016;2024-02-21T05:02:38;11.20;99.90
44775;DHT22;31340;51.402;0.016;2024-02-21T05:05:06;11.10;99.90
44775;DHT22;31340;51.402;0.016;2024-02-21T05:07:34;11.10;99.90
44775;DHT22;31340;51.402;0.016;2024-02-21T05:10:03;11.10;99.90
44775;DHT22;31340;51.402;0.016;2024-02-21T05:12:30;11.10;99.90
44775;DHT22;31340;51.402;0.016;2024-02-21T05:14:58;11.10;99.90
44775;DHT22;31340;51.402;0.016;2024-02-21T05:17:26;11.10;99.90
44775;DHT22;31340;51.402;0.016;2024-02-21T05:19:53;11.10;99.90
44775;DHT22;31340;51.402;0.016;2024-02-21T05:22:21;11.10;99.90
44775;DHT22;31340;51.402;0.016;2024-02-21T05:24:48;11.10;99.90
44775;DHT22;31340;51.402;0.016;2024-02-21T05:27:16;11.00;99.90
44775;DHT22;31340;51.402;0.016;2024-02-21T05:29:43;11.10;99.90
44775;DHT22;31340;51.402;0.016;2024-02-21T05:32:12;11.00;99.90
44775;DHT22;31340;51.402;0.016;2024-02-21T05:34:39;11.10;99.90
44775;DHT22;31340;51.402;0.016;2024-02-21T05:37:07;11.00;99.90
44775;DHT22;31340;51.402;0.016;2024-02-21T05:39:34;11.00;99.90
44775;DHT22;31340;51.402;0.016;2024-02-21T05:42:02;11.00;99.90
44775;DHT22;31340;51.402;0.016;2024-02-21T05:44:30;11.00;99.90
44775;DHT22;31340;51.402;0.016;2024-02-21T05:46:58;11.10;99.90
44775;DHT22;31340;51.402;0.016;2024-02-21T05:49:26;11.00;99.90
44775;DHT22;31340;51.402;0.016;2024-02-21T05:51:54;11.00;99.90
44775;DHT22;31340;51.402;0.016;2024-02-21T05:54:21;11.00;99.90
44775;DHT22;31340;51.402;0.016;2024-02-21T05:56:49;11.00;99.90
44775;DHT22;31340;51.402;0.016;2024-02-21T05:59:17;11.00;99.90
44775;DHT22;31340;51.402;0.016;2024-02-21T06:01:44;11.00;99.90
44775;DHT22;31340;51.402;0.016;2024-02-21T06:04:12;11.00;99.90
44775;DHT22;31340;51.402;0.016;2024-02-21T06:06:40;11.00;99.90
44775;DHT22;31340;51.402;0.016;2024-02-21T06:09:08;11.00;99.90
44775;DHT22;31340;51.402;0.016;2024-02-21T06:11:37;11.00;99.90
44775;DHT22;31340;51.402;0.016;2024-02-21T06:14:05;11.00;99.90
44775;DHT22;31340;51.402;0.016;2024-02-21T06:16:33;10.90;99.90
44775;DHT22;31340;51.402;0.016;2024-02-21T06:19:00;10.90;99.90
44775;DHT22;31340;51.402;0.016;2024-02-21T06:21:29;10.90;99.90
44775;DHT22;31340;51.402;0.016;2024-02-21T06:23:58;10.90;99.90
44775;DHT22;31340;51.402;0.016;2024-02-21T06:26:25;10.90;99.90
44775;DHT22;31340;51.402;0.016;2024-02-21T06:28:53;10.90;99.90
44775;DHT22;31340;51.402;0.016;2024-02-21T06:31:20;10.90;99.90
44775;DHT22;31340;51.402;0.016;2024-02-21T06:33:48;10.90;99.90
44775;DHT22;31340;51.402;0.016;2024-02-21T06:36:16;10.80;99.90
44775;DHT22;31340;51.402;0.016;2024-02-21T06:38:43;10.80;99.90
44775;DHT22;31340;51.402;0.016;2024-02-21T06:41:18;10.80;99.90
44775;DHT22;31340;51.402;0.016;2024-02-21T06:43:47;10.80;99.90
44775;DHT22;31340;51.402;0.016;2024-02-21T06:46:25;10.80;99.90
44775;DHT22;31340;51.402;0.016;2024-02-21T06:48:55;10.80;99.90
44775;DHT22;31340;51.402;0.016;2024-02-21T06:51:24;10.70;99.90
44775;DHT22;31340;51.402;0.016;2024-02-21T06:53:55;10.70;99.90
44775;DHT22;31340;51.402;0.016;2024-02-21T06:56:24;10.70;99.90
44775;DHT22;31340;51.402;0.016;2024-02-21T06:58:56;10.70;99.90
44775;DHT22;31340;51.402;0.016;2024-02-21T07:01:25;10.70;99.90
44775;DHT22;31340;51.402;0.016;2024-02-21T07:03:52;10.70;99.90
44775;DHT22;31340;51.402;0.016;2024-02-21T07:06:20;10.70;99.90
44775;DHT22;31340;51.402;0.016;2024-02-21T07:08:49;10.70;99.90
44775;DHT22;31340;51.402;0.016;2024-02-21T07:11:17;10.70;99.90
44775;DHT22;31340;51.402;0.016;2024-02-21T07:13:45;10.70;99.90
44775;DHT22;31340;51.402;0.016;2024-02-21T07:16:12;10.60;99.90
44775;DHT22;31340;51.402;0.016;2024-02-21T07:18:40;10.60;99.90
44775;DHT22;31340;51.402;0.016;2024-02-21T07:21:07;10.60;99.90
44775;DHT22;31340;51.402;0.016;2024-02-21T07:23:35;10.60;99.90
44775;DHT22;31340;51.402;0.016;2024-02-21T07:26:04;10.60;99.90
44775;DHT22;31340;51.402;0.016;2024-02-21T07:28:32;10.60;99.90
44775;DHT22;31340;51.402;0.016;2024-02-21T07:31:00;10.60;99.90
44775;DHT22;31340;51.402;0.016;2024-02-21T07:33:27;10.60;99.90
44775;DHT22;31340;51.402;0.016;2024-02-21T07:35:56;10.60;99.90
44775;DHT22;31340;51.402;0.016;2024-02-21T07:38:23;10.60;99.90
44775;DHT22;31340;51.402;0.016;2024-02-21T07:40:51;10.60;99.90
44775;DHT22;31340;51.402;0.016;2024-02-21T07:43:19;10.60;99.90
44775;DHT22;31340;51.402;0.016;2024-02-21T07:45:49;10.60;99.90
44775;DHT22;31340;51.402;0.016;2024-02-21T07:48:17;10.50;99.90
44775;DHT22;31340;51.402;0.016;2024-02-21T07:50:46;10.50;99.90
44775;DHT22;31340;51.402;0.016;2024-02-21T07:53:15;10.50;99.90
44775;DHT22;31340;51.402;0.016;2024-02-21T07:55:42;10.60;99.90
44775;DHT22;31340;51.402;0.016;2024-02-21T07:58:10;10.60;99.90
44775;DHT22;31340;51.402;0.016;2024-02-21T08:00:37;10.60;99.90
44775;DHT22;31340;51.402;0.016;2024-02-21T08:03:05;10.60;99.90
44775;DHT22;31340;51.402;0.016;2024-02-21T08:05:34;10.60;99.90
44775;DHT22;31340;51.402;0.016;2024-02-21T08:08:03;10.60;99.90
44775;DHT22;31340;51.402;0.016;2024-02-21T08:10:31;10.60;99.90
44775;DHT22;31340;51.402;0.016;2024-02-21T08:12:59;10.70;99.90
44775;DHT22;31340;51.402;0.016;2024-02-21T08:15:27;10.60;99.90
44775;DHT22;31340;51.402;0.016;2024-02-21T08:17:57;10.70;99.90
44775;DHT22;31340;51.402;0.016;2024-02-21T08:20:27;10.70;99.90
44775;DHT22;31340;51.402;0.016;2024-02-21T08:22:55;10.70;99.90
44775;DHT22;31340;51.402;0.016;2024-02-21T08:25:23;10.70;99.90
44775;DHT22;31340;51.402;0.016;2024-02-21T08:27:50;10.70;99.90
44775;DHT22;31340;51.402;0.016;2024-02-21T08:30:19;10.70;99.90
44775;DHT22;31340;51.402;0.016;2024-02-21T08:32:47;10.70;99.90
44775;DHT22;31340;51.402;0.016;2024-02-21T08:35:15;10.80;99.90
44775;DHT22;31340;51.402;0.016;2024-02-21T08:37:46;10.80;99.90
44775;DHT22;31340;51.402;0.016;2024-02-21T08:40:15;10.80;99.90
44775;DHT22;31340;51.402;0.016;2024-02-21T08:42:48;10.80;99.90
44775;DHT22;31340;51.402;0.016;2024-02-21T08:45:17;10.80;99.90
44775;DHT22;31340;51.402;0.016;2024-02-21T08:47:47;10.90;99.90
44775;DHT22;31340;51.402;0.016;2024-02-21T08:50:15;10.90;99.90
44775;DHT22;31340;51.402;0.016;2024-02-21T08:52:54;10.90;99.90
44775;DHT22;31340;51.402;0.016;2024-02-21T08:55:22;10.90;99.90
44775;DHT22;31340;51.402;0.016;2024-02-21T08:57:51;10.90;99.90
44775;DHT22;31340;51.402;0.016;2024-02-21T09:00:19;10.90;99.90
44775;DHT22;31340;51.402;0.016;2024-02-21T09:02:51;10.90;99.90
44775;DHT22;31340;51.402;0.016;2024-02-21T09:05:19;11.00;99.90
44775;DHT22;31340;51.402;0.016;2024-02-21T09:07:47;11.00;99.90
44775;DHT22;31340;51.402;0.016;2024-02-21T09:10:15;11.00;99.90
44775;DHT22;31340;51.402;0.016;2024-02-21T09:12:43;11.00;99.90
44775;DHT22;31340;51.402;0.016;2024-02-21T09:15:11;11.00;99.90
44775;DHT22;31340;51.402;0.016;2024-02-21T09:17:39;11.10;99.90
44775;DHT22;31340;51.402;0.016;2024-02-21T09:20:07;11.10;99.90
44775;DHT22;31340;51.402;0.016;2024-02-21T09:22:35;11.10;99.90
44775;DHT22;31340;51.402;0.016;2024-02-21T09:25:03;11.10;99.90
44775;DHT22;31340;51.402;0.016;2024-02-21T09:27:32;11.10;99.90
44775;DHT22;31340;51.402;0.016;2024-02-21T09:30:00;11.10;99.90
44775;DHT22;31340;51.402;0.016;2024-02-21T09:32:28;11.10;99.90
44775;DHT22;31340;51.402;0.016;2024-02-21T09:34:56;11.20;99.90
44775;DHT22;31340;51.402;0.016;2024-02-21T09:37:28;11.20;99.90
44775;DHT22;31340;51.402;0.016;2024-02-21T09:39:56;11.20;99.90
44775;DHT22;31340;51.402;0.016;2024-02-21T09:42:38;11.20;99.90
44775;DHT22;31340;51.402;0.016;2024-02-21T09:45:23;11.20;99.90
44775;DHT22;31340;51.402;0.016;2024-02-21T09:50:39;11.30;99.90
44775;DHT22;31340;51.402;0.016;2024-02-21T09:53:10;11.30;99.90
44775;DHT22;31340;51.402;0.016;2024-02-21T09:55:39;11.20;99.90
44775;DHT22;31340;51.402;0.016;2024-02-21T09:58:09;11.20;99.90
44775;DHT22;31340;51.402;0.016;2024-02-21T10:00:44;11.20;99.90
44775;DHT22;31340;51.402;0.016;2024-02-21T10:03:11;11.20;99.90
44775;DHT22;31340;51.402;0.016;2024-02-21T10:05:47;11.30;99.90
44775;DHT22;31340;51.402;0.016;2024-02-21T10:08:15;11.20;99.90
44775;DHT22;31340;51.402;0.016;2024-02-21T10:10:44;11.30;99.90
44775;DHT22;31340;51.402;0.016;2024-02-21T10:13:26;11.30;99.90
44775;DHT22;31340;51.402;0.016;2024-02-21T10:16:05;11.30;99.90
44775;DHT22;31340;51.402;0.016;2024-02-21T10:18:34;11.30;99.90
44775;DHT22;31340;51.402;0.016;2024-02-21T10:21:08;11.30;99.90
44775;DHT22;31340;51.402;0.016;2024-02-21T10:23:47;11.30;99.90
44775;DHT22;31340;51.402;0.016;2024-02-21T10:26:16;11.30;99.90
44775;DHT22;31340;51.402;0.016;2024-02-21T10:28:45;11.30;99.90
44775;DHT22;31340;51.402;0.016;2024-02-21T10:31:25;11.30;99.90
44775;DHT22;31340;51.402;0.016;2024-02-21T10:34:02;11.30;99.90
44775;DHT22;31340;51.402;0.016;2024-02-21T10:36:33;11.30;99.90
44775;DHT22;31340;51.402;0.016;2024-02-21T10:39:01;11.30;99.90
44775;DHT22;31340;51.402;0.016;2024-02-21T10:41:30;11.30;99.90
44775;DHT22;31340;51.402;0.016;2024-02-21T10:44:00;11.30;99.90
44775;DHT22;31340;51.402;0.016;2024-02-21T10:46:35;11.30;99.90
44775;DHT22;31340;51.402;0.016;2024-02-21T10:49:10;11.40;99.90
44775;DHT22;31340;51.402;0.016;2024-02-21T10:51:43;11.30;99.90
44775;DHT22;31340;51.402;0.016;2024-02-21T10:57:08;11.40;99.90
44775;DHT22;31340;51.402;0.016;2024-02-21T10:59:39;11.40;99.90
44775;DHT22;31340;51.402;0.016;2024-02-21T11:02:07;11.40;99.90
44775;DHT22;31340;51.402;0.016;2024-02-21T11:04:36;11.40;99.90
44775;DHT22;31340;51.402;0.016;2024-02-21T11:07:05;11.40;99.90
44775;DHT22;31340;51.402;0.016;2024-02-21T11:09:38;11.40;99.90
44775;DHT22;31340;51.402;0.016;2024-02-21T11:12:06;11.40;99.90
44775;DHT22;31340;51.402;0.016;2024-02-21T11:14:37;11.40;99.90
44775;DHT22;31340;51.402;0.016;2024-02-21T11:17:20;11.40;99.90
44775;DHT22;31340;51.402;0.016;2024-02-21T11:19:54;11.40;99.90
44775;DHT22;31340;51.402;0.016;2024-02-21T11:22:22;11.40;99.90
44775;DHT22;31340;51.402;0.016;2024-02-21T11:24:52;11.40;99.90
44775;DHT22;31340;51.402;0.016;2024-02-21T11:27:22;11.40;99.90
44775;DHT22;31340;51.402;0.016;2024-02-21T11:29:57;11.40;99.90
44775;DHT22;31340;51.402;0.016;2024-02-21T11:32:26;11.50;99.90
44775;DHT22;31340;51.402;0.016;2024-02-21T11:35:02;11.50;99.90
44775;DHT22;31340;51.402;0.016;2024-02-21T11:37:35;11.50;99.90
44775;DHT22;31340;51.402;0.016;2024-02-21T11:40:08;11.50;99.90
44775;DHT22;31340;51.402;0.016;2024-02-21T11:42:39;11.60;99.90
44775;DHT22;31340;51.402;0.016;2024-02-21T11:45:07;11.60;99.90
44775;DHT22;31340;51.402;0.016;2024-02-21T11:47:38;11.60;99.90
44775;DHT22;31340;51.402;0.016;2024-02-21T11:50:12;11.60;99.90
44775;DHT22;31340;51.402;0.016;2024-02-21T11:52:44;11.60;99.90
44775;DHT22;31340;51.402;0.016;2024-02-21T11:55:12;11.60;99.90
44775;DHT22;31340;51.402;0.016;2024-02-21T11:57:40;11.60;99.90
44775;DHT22;31340;51.402;0.016;2024-02-21T12:00:18;11.60;99.90
44775;DHT22;31340;51.402;0.016;2024-02-21T12:02:50;11.60;99.90
44775;DHT22;31340;51.402;0.016;2024-02-21T12:05:21;11.60;99.90
44775;DHT22;31340;51.402;0.016;2024-02-21T12:07:49;11.60;99.90
44775;DHT22;31340;51.402;0.016;2024-02-21T12:10:17;11.60;99.90
44775;DHT22;31340;51.402;0.016;2024-02-21T12:12:45;11.60;99.90
44775;DHT22;31340;51.402;0.016;2024-02-21T12:15:12;11.60;99.90
44775;DHT22;31340;51.402;0.016;2024-02-21T12:17:40;11.70;99.90
44775;DHT22;31340;51.402;0.016;2024-02-21T12:20:09;11.70;99.90
44775;DHT22;31340;51.402;0.016;2024-02-21T12:22:38;11.70;99.90
44775;DHT22;31340;51.402;0.016;2024-02-21T12:25:16;11.70;99.90
44775;DHT22;31340;51.402;0.016;2024-02-21T12:27:48;11.70;99.90
44775;DHT22;31340;51.402;0.016;2024-02-21T12:30:16;11.70;99.90
44775;DHT22;31340;51.402;0.016;2024-02-21T12:32:45;11.70;99.90
44775;DHT22;31340;51.402;0.016;2024-02-21T12:35:12;11.80;99.90
44775;DHT22;31340;51.402;0.016;2024-02-21T12:37:40;11.80;99.90
44775;DHT22;31340;51.402;0.016;2024-02-21T12:40:09;11.80;99.90
44775;DHT22;31340;51.402;0.016;2024-02-21T12:42:42;11.80;99.90
44775;DHT22;31340;51.402;0.016;2024-02-21T12:45:10;11.80;99.90
44775;DHT22;31340;51.402;0.016;2024-02-21T12:47:38;11.90;99.90
44775;DHT22;31340;51.402;0.016;2024-02-21T12:50:07;11.90;99.90
44775;DHT22;31340;51.402;0.016;2024-02-21T12:52:35;11.90;99.90
44775;DHT22;31340;51.402;0.016;2024-02-21T12:55:03;11.90;99.90
44775;DHT22;31340;51.402;0.016;2024-02-21T12:57:31;11.90;99.90
44775;DHT22;31340;51.402;0.016;2024-02-21T12:59:59;12.00;99.90
44775;DHT22;31340;51.402;0.016;2024-02-21T13:02:26;12.00;99.90
44775;DHT22;31340;51.402;0.016;2024-02-21T13:04:54;12.00;99.90
44775;DHT22;31340;51.402;0.016;2024-02-21T13:07:23;12.00;99.90
44775;DHT22;31340;51.402;0.016;2024-02-21T13:09:51;12.00;99.90
44775;DHT22;31340;51.402;0.016;2024-02-21T13:12:18;12.10;99.90
44775;DHT22;31340;51.402;0.016;2024-02-21T13:14:46;12.10;99.90
44775;DHT22;31340;51.402;0.016;2024-02-21T13:17:13;12.10;99.90
44775;DHT22;31340;51.402;0.016;2024-02-21T13:19:43;12.20;99.90
44775;DHT22;31340;51.402;0.016;2024-02-21T13:22:11;12.10;99.90
44775;DHT22;31340;51.402;0.016;2024-02-21T13:24:39;12.20;99.90
44775;DHT22;31340;51.402;0.016;2024-02-21T13:27:07;12.20;99.90
44775;DHT22;31340;51.402;0.016;2024-02-21T13:29:34;12.20;99.90
44775;DHT22;31340;51.402;0.016;2024-02-21T13:32:02;12.20;99.90
44775;DHT22;31340;51.402;0.016;2024-02-21T13:34:30;12.20;99.90
44775;DHT22;31340;51.402;0.016;2024-02-21T13:36:58;12.30;99.90
44775;DHT22;31340;51.402;0.016;2024-02-21T13:39:26;12.30;99.90
44775;DHT22;31340;51.402;0.016;2024-02-21T13:41:54;12.30;99.90
44775;DHT22;31340;51.402;0.016;2024-02-21T13:44:22;12.30;99.90
44775;DHT22;31340;51.402;0.016;2024-02-21T13:46:49;12.30;99.90
44775;DHT22;31340;51.402;0.016;2024-02-21T13:49:17;12.30;99.90
44775;DHT22;31340;51.402;0.016;2024-02-21T13:51:44;12.30;99.90
44775;DHT22;31340;51.402;0.016;2024-02-21T13:54:13;12.30;99.90
44775;DHT22;31340;51.402;0.016;2024-02-21T13:56:44;12.40;99.90
44775;DHT22;31340;51.402;0.016;2024-02-21T13:59:12;12.40;99.90
44775;DHT22;31340;51.402;0.016;2024-02-21T14:01:43;12.40;99.90
44775;DHT22;31340;51.402;0.016;2024-02-21T14:04:12;12.40;99.90
44775;DHT22;31340;51.402;0.016;2024-02-21T14:06:39;12.40;99.90
44775;DHT22;31340;51.402;0.016;2024-02-21T14:09:12;12.40;99.90
44775;DHT22;31340;51.402;0.016;2024-02-21T14:11:40;12.40;99.90
44775;DHT22;31340;51.402;0.016;2024-02-21T14:14:09;12.40;99.90
44775;DHT22;31340;51.402;0.016;2024-02-21T14:16:36;12.40;99.90
44775;DHT22;31340;51.402;0.016;2024-02-21T14:19:04;12.40;99.90
44775;DHT22;31340;51.402;0.016;2024-02-21T14:21:32;12.40;99.90
44775;DHT22;31340;51.402;0.016;2024-02-21T14:24:00;12.40;99.90
44775;DHT22;31340;51.402;0.016;2024-02-21T14:26:30;12.40;99.90
44775;DHT22;31340;51.402;0.016;2024-02-21T14:28:58;12.40;99.90
44775;DHT22;31340;51.402;0.016;2024-02-21T14:31:26;12.40;99.90
44775;DHT22;31340;51.402;0.016;2024-02-21T14:33:54;12.40;99.90
44775;DHT22;31340;51.402;0.016;2024-02-21T14:36:22;12.40;99.90
44775;DHT22;31340;51.402;0.016;2024-02-21T14:38:51;12.40;99.90
44775;DHT22;31340;51.402;0.016;2024-02-21T14:41:19;12.40;99.90
44775;DHT22;31340;51.402;0.016;2024-02-21T14:43:47;12.40;99.90
44775;DHT22;31340;51.402;0.016;2024-02-21T14:46:14;12.40;99.90
44775;DHT22;31340;51.402;0.016;2024-02-21T14:48:42;12.40;99.90
44775;DHT22;31340;51.402;0.016;2024-02-21T14:51:10;12.40;99.90
44775;DHT22;31340;51.402;0.016;2024-02-21T14:53:38;12.40;99.90
44775;DHT22;31340;51.402;0.016;2024-02-21T14:56:13;12.40;99.90
44775;DHT22;31340;51.402;0.016;2024-02-21T14:58:42;12.40;99.90
44775;DHT22;31340;51.402;0.016;2024-02-21T15:01:10;12.40;99.90
44775;DHT22;31340;51.402;0.016;2024-02-21T15:03:41;12.40;99.90
44775;DHT22;31340;51.402;0.016;2024-02-21T15:06:10;12.40;99.90
44775;DHT22;31340;51.402;0.016;2024-02-21T15:08:39;12.40;99.90
44775;DHT22;31340;51.402;0.016;2024-02-21T15:11:06;12.40;99.90
44775;DHT22;31340;51.402;0.016;2024-02-21T15:13:35;12.40;99.90
44775;DHT22;31340;51.402;0.016;2024-02-21T15:16:04;12.40;99.90
44775;DHT22;31340;51.402;0.016;2024-02-21T15:18:32;12.40;99.90
44775;DHT22;31340;51.402;0.016;2024-02-21T15:21:01;12.40;99.90
44775;DHT22;31340;51.402;0.016;2024-02-21T15:23:28;12.40;99.90
44775;DHT22;31340;51.402;0.016;2024-02-21T15:25:56;12.40;99.90
44775;DHT22;31340;51.402;0.016;2024-02-21T15:28:24;12.40;99.90
44775;DHT22;31340;51.402;0.016;2024-02-21T15:30:51;12.40;99.90
44775;DHT22;31340;51.402;0.016;2024-02-21T15:33:20;12.40;99.90
44775;DHT22;31340;51.402;0.016;2024-02-21T15:35:48;12.40;99.90
44775;DHT22;31340;51.402;0.016;2024-02-21T15:38:16;12.40;99.90
44775;DHT22;31340;51.402;0.016;2024-02-21T15:40:43;12.40;99.90
44775;DHT22;31340;51.402;0.016;2024-02-21T15:43:11;12.40;99.90
44775;DHT22;31340;51.402;0.016;2024-02-21T15:45:39;12.40;99.90